East Smethport, Pennsylvania
Current Conditions -  °F | °C
As of 6:53 AM on Friday 19 Dec 2014 (Local Time) from KBFD Reporting Station
Overcast Overcast  
Wind Chill: -10°   Ceiling: 900
Heat Index: -4°   Visibility: 10mi
Dew Point: -6°   Wind: 12mph
Humidity: 85%   Direction: 310°NW
Pressure: 30.03"   Gusts: NA
Location:  41.81°N, 78.42°W
Report Text: KBFD 191153Z AUTO 31010KT 10SM OVC009 M04/M06 A3003 RMK AO2 UPE11 SLP192 P0000 60000 I6002 T10391061 11033 21039 53008
Loading
Personal Weather Stations






























Interactive Weather Map New forecast layout! Learn more

10-Day Weather Forecast

Advertisements
Track Severe Weather on mobile